Ksea taf. METAR KSEA 262025Z 30009G19KT 1 3/4SM R16L/4500VP6000FT -RA SCT021 ...

TAF for: KSEA (Seattle-Tacoma Intl, WA, US) issued

Impacts TAF Board. TAF Home. Plot. Data. Board. Info. For situational awareness. Not to be used for flight planning purposes. IDs: KSEA - Seattle-Tacoma Intl, WA, US. Issued at 0528 UTC 09 Apr 2023. Updated at 0946 UTC 09 Apr 2023. Potential Impact: None: Slight: Moderate: High: Time 0853Z 09/10Z 09/11Z 09/12Z 09/13Z 09/14ZMETAR KSEA 252253Z 19010KT 10SM FEW050 SCT080 OVC095 17/12 A2976 RMK AO2 SLP082 T01670117. The wind is from direction 190° with a speed of 10 kt. Visibility is 10 mi. The ceiling, broken or more, is 9,500 …METAR KSEA 262056Z 21011G20KT 5SM -RA BR FEW025 SCT035 OVC050 12/10 A3001 RMK AO2 LTG DSNT NE P0001 T01170100. Current weather is light rain, mist.The wind is from direction 210° with a speed of 11 kt. Visibility is 5 mi. The ceiling, broken or more, is 5,000 ft. The temperature and wind chill are 12 °C.AVIATION WEATHER CENTER. This site is changing on October 16, 2023. Preview the new site at Beta.AviationWeather.gov. SCN23-79: Upgrade of Aviation Weather Center Website. TAFs.Raw TAF KSEA 301405Z 3014/0118 VRB03KT P6SM SCT004 TEMPO 3015/3017 1SM BR BKN004 FM301700 VRB03KT P6SM SKC FM302200 34006KT P6SM SKC FM011300 34006KT P6SM SCT006 METAR Board Radar Display Forecast Discussion. For situational awareness. Not to be used for flight planning purposes.METAR KSEA 261953Z 30010KT 10SM SCT036 BKN046 BKN080 14/09 A2999 RMK AO2 SLP159 VCSH T01440089. The wind is from direction 300° with a speed of 10 kt. Visibility is 10 mi. The ceiling, broken or more, is 4,600 ft. The temperature and wind chill are 14 °C.KSEA 262353Z 34013KT 7SM SCT120 31/11 A2995 RMK AO2 SLP144 T03060106 10311 20244 58011. Location: KSEA. SEATTLE - TACOMA INT'L - USA (WASHINGTON). Latitude: 47 ...KSEA (SEATTLE/METRO , WA, US) Text: KSEA 100520Z 1006/1112 19008KT P6SM FEW035 BKN050 OVC070 : Forecast period: 0600 to 1400 UTC 10 October 2023 Forecast type: FROM: standard forecast or significant change Winds: from the S (190 degrees) at 9 MPH (8 knots; 4.1 m/s) Visibility: 6 or more miles (10+ km) Ceiling:Flight plan departing from KSEA - Seattle-Tacoma Intl, arriving at KBFI - Boeing Fld King Co Intl. Distance 5 nm / 9 km. Download for FSX, X-Plane, PMDG, Infinite Flight, PDF or other products. ... TAF AMD KBFI 180303Z 1803/1824 14005KT P6SM FEW050 OVC090 FM180500 16008KT P6SM BKN100 OVC200 FM181000 16008KT P6SM VCSH BKN030 OVC050 FM181700 ...KSEA - Seattle-Tacoma Intl, WA, US Issued at 1720 UTC 06 Oct 2023 Updated at 1819 UTC 06 Oct 2023 Potential Impact None Slight Moderate High NOTE: LAMP data beyond the time of the TAF data is denoted as LAMP in Type and colored magenta. Raw TAF KSEA 061720Z 0618/0724 02008KT P6SM SCT006 FM061900 01009KT P6SM SCT010 FM062100 35010KT P6SM SKC TAF KTCM 012100Z 0121/0303 01012KT 9999 SKC QNH3006INS BECMG 0204/0205 18004KT 9999 SCT070 BKN100 QNH3004INS BECMG 0214/0215 20006KT 9999 SCT008 BKN050 ...Windy: KSEA (SEA) Seattle-Tacoma International Airport, METAR, TAF, NOTAM and weather forecast. Piedras Negras. Texas.TAF ; NOTAM ; History ... KSEA B) 2309182217 E) SEA SVC TAR U/S CANCELED September 18, 2023 15:17 - September 21, 2023 15:17 LT 210 ° at 6 KTS. Visibility. Greater than 6 SM. Clouds. Broken at 5,000 ft AGL. Overcast at 9,000 ft AGL. Ceiling. Broken at 5,000 ft AGL. TAF Seattle-Tacoma International Airport KSEA SeaTac, Washington, United States.Consulta el tiempo de vuelo (METAR y TAF) para Aeropuerto Internacional de Seattle-Tacoma, Seattle, Estados Unidos. Seattle-Tacoma International Airport KSEA · Estado de Washington, Estados Unidos. ... METAR KSEA 012153Z 35010KT 10SM CLR 25/12 A2997 RMK AO2 SLP152 T02500122Don't have an account yet? Sign up for free!. English . English Nederlands Español Deutsch Français Italiano Português Polski 中文 Nederlands Español Deutsch Français Italiano Português Polski 中文KSEA - Seattle-Tacoma Intl, WA, US. Issued at 1459 UTC 14 Apr 2023. Updated at 1646 UTC 14 Apr 2023. Potential Impact: None: Slight: Moderate: High: Time <<15/17Z 15/18Z ... Raw TAF KSEA 141459Z 1415/1518 VRB04KT P6SM FEW010 FEW025 FM141900 22006KT P6SM FEW050 FM150100 18006KT P6SM SCT060 BKN150 FM151600 18008KT P6SM BKN035 OVC100 METAR Board ...KSEA - Seattle-Tacoma Intl, WA, US. Issued at 0904 UTC 19 Jul 2023. Updated at 1025 UTC 19 Jul 2023. Potential Impact: None: Slight: Moderate: High: Time 0953Z 19/11Z 19/12Z 19/13Z 19/14Z 19/15Z ... NOTE: LAMP data beyond the time of the TAF data is denoted as LAMP in Type and colored magenta.TAF for: KGEG (Spokane Intl, WA, US) issued at 2320 UTC 05 Oct 2023: Text: KGEG 052320Z 0600/0624 34010KT P6SM FEW050 SCT100 SCT200 : Forecast period: 0000 to 0300 UTC 06 October 2023: Forecast type: FROM: standard forecast or significant change: Winds: from the NNW (340 degrees) at 12 MPH (10 knots; 5.1 m/s)NOTE: LAMP data beyond the time of the TAF data is denoted as LAMP in Type and colored magenta. Raw TAF KSEA 060901Z 0609/0712 01008KT P6SM SKC FM061200 03006KT 6SM BR SCT002 FM061700 35007KT P6SM SKC FM070600 04005KT P6SM SKC Raw METAR KSEA 060853Z 36007KT 10SM CLR 12/10 A3027 RMK AO2 SLP257 T01220100 56006 KSEA 060753Z 01010KT 10SM CLR 13/11 A3028 RMK AO2 SLP258 T01280106 401940128 KSEA ...Oct 11, 2023 · METAR John Wayne/Orange County Airport - KSNA/SNA. John Wayne/Orange County Airport is a large airport in California, United States. The airport is located at latitude 33.67612 and longitude -117.86764. The airport has 2 runways: 2L/20R and 2R/20L. The ICAO airport code of this field is KSNA. METAR KSEA 010953Z 00000KT 10SM FEW040 08/06 A3013 RMK AO2 SLP208 T00830061 $. There is little or no wind from a variable direction. Visibility is 10 mi. ... KSEA - Seattle-Tacoma International Airport METAR TAF. KRNT - Renton Municipal Airport (4.7 NM) METAR KBFI - Boeing Field/King County International ...NOTE: LAMP data beyond the time of the TAF data is denoted as LAMP in Type and colored magenta. Raw TAF KSEA 270314Z 2703/2806 02010KT 5SM -RA OVC035 FM271200 15015G25KT 5SM -RA OVC020 FM271500 13020G30KT 4SM -RA OVC020 FM272100 19012G25KT 4SM -RA BR OVC015 METAR Board Radar DisplayThe report was made 18 minutes ago, at 08:53 UTC. Calm wind. Temperature 16 °C. Humidity 72 %. Pressure 1015 hPa. Visibility: 16.1 km. Scattered clouds at a height of 4300 ft. Change units. METAR: KSEA 100853Z 00000KT 10SM SCT043 16/11 A2997 RMK AO2 SLP153 T01610106 51007 $. METAR KSEA 230553Z 01007KT 10SM FEW050 FEW200 19/09 A2991 RMK AO2 SLP132 T01890094 10256 20189 58002. The wind is from direction 010° with a speed of 7 kt. Visibility is 10 mi. ... KSEA - Seattle-Tacoma International Airport METAR TAF. KRNT - Renton Municipal Airport (4.7 NM) METAR KBFI - Boeing Field/King County International ...The second number: (KSEA A2995/15) ensures people searching for KSEA will see this NOTAM. Anyway, just know you will see the affected location after the numbering system. 4. Type of NOTAM ... METAR and TAF acronyms in one place for easy reference. Keep it on your smartphone/iPad for easy access. You can buy it for $7.99 by clicking the blue ...Seattle-Tacoma International Airport is a large airport in Washington, United States. The airport is located at latitude 47.44989 and longitude -122.31178. The airport has 3 runways: 16L/34R, 16C/34C and 16R/34L. The ICAO airport code of this field is KSEA. The local airport ID (FAA LID) of this airport is SEA. The airport's IATA code is SEA.Impacts TAF Board. TAF Home. Plot. Data. Board. Info. For situational awareness. Not to be used for flight planning purposes. IDs: KSEA - Seattle-Tacoma Intl, WA, US. Issued at 1735 UTC 21 Mar 2023. Updated at 1758 UTC 21 Mar 2023. Potential Impact: None: Slight: Moderate: High: Time 1753Z 21/18Z 21/19Z 21/20Z 21/21Z 21/22ZMETAR KSEA 140653Z 36009KT 10SM CLR 19/10 A3012 RMK AO2 SLP205 T01940100 $. The wind is from direction 360° with a speed of 9 kt. Visibility is 10 mi. No ceiling has been observed. ... KSEA - Seattle-Tacoma International Airport METAR TAF. KRNT - Renton Municipal Airport (4.7 NM) METAR KBFI - Boeing Field/King County International ...METAR for: KSEA (Seattle-Tacoma Intl, WA, US) Text: KSEA 231153Z 21007KT 10SM SCT120 OVC240 14/08 A2991 RMK AO2 SLP134 T01390078 10172 20139 55000 KSEA (SEATTLE/METRO , WA, US) Text: KSEA 221120Z 2212/2318 13005KT P6SM SKC : Forecast period: 1200 to 1500 UTC 22 September 2023 Forecast type: FROM: standard forecast or significant change Winds: from the SE (130 degrees) at 6 MPH (5 knots; 2.6 m/s) Visibility: 6 or more miles (10+ km) ...ksea 102353z 17011g16kt 10sm few031 sct048 bkn070 15/10 a2944 rmk ao2 rab07e29 slp976 p0001 60002 t01500100 10167 20117 56005 ksea 102340z 1100/1206 18012g20kt p6sm -shra few025 bkn030 ovc060 fm111200 18008kt p6sm -shra bkn025 ovc035 fm111500 18006kt 5sm -shra ovc020 fm112100 22005kt p6sm -shra ovc030 fm112300 28003kt p6sm bkn050NOTE: LAMP data beyond the time of the TAF data is denoted as LAMP in Type and colored magenta. Raw TAF KSEA 141720Z 1418/1524 VRB04KT P6SM SCT014 FM141900 22006KT P6SM FEW014 FEW050 FM150100 18006KT P6SM SCT060 BKN150 KSEA 141720Z 1418/1524 VRB04KT P6SM SCT014 FM141900 22006KT P6SM FEW014 FEW050 FM150100 18006KT P6SM SCT060 BKN150METAR KSEA 092153Z VRB03KT 10SM SCT035 BKN200 16/07 A3010 RMK AO2 SLP198 T01610067. There is little or no wind from a variable direction. Visibility is 10 mi. The ceiling, broken or more, is 20,000 ft. The temperature and wind chill are 16 °C.METAR KSEA 290653Z 13005KT 10SM BKN042 OVC065 12/06 A3001 RMK AO2 SLP167 T01220056. The wind is from direction 130° with a speed of 5 kt. Visibility is 10 mi. The ceiling, broken or more, is 4,200 ft. The temperature and wind chill are 12 °C.data at: 1656 utc 04 oct 2023. ksea 041653z 24004kt 10sm few007 ovc010 13/09 a3036 rmk ao2 slp287 t01330094 ksea 041553z 17004kt 10sm sct007 bkn012 13/11 a3035 rmk ao2 slp282 t01280106 ksea 041507z 17003kt 10sm sct007 ovc010 12/10 a3034 rmk ao2 t01220100 ksea 041453z 19003kt 10sm bkn007 ovc010 12/11 a3034 rmk ao2 slp281 t01220106 53007 ksea 041424z 23003kt 10sm ovc007 12/11 a3034 rmk ao2 cig ...ksea 031553z 02008kt 10sm bkn013 bkn042 bkn250 12/10 a3016 rmk ao2 slp221 t01220100 decode. taf. taf amd ksea 031457z 0315/0418 36008kt p6sm sct008 bkn015 ovc022 tempo 0315/0316 4sm br fm031700 35005kt p6sm ovc010 fm032000 24005kt p6sm ovc017 fm040100 21006kt p6sm ovc025 fm040700 20005kt 6sm br ovc008Western Storm Spreads East. A western storm will slowly spread accumulating snow into the Intermountain West and Rockies, while heavy snow persists across the southern Sierra-Nevada mountains.METAR KSEA 101000Z 20006KT 6SM -RA BR BKN005 BKN015 OVC035 11/10 A3005 RMK AO2 P0001 T01110100. Current weather is light rain, mist.The wind is from direction 200° with a speed of 6 kt. Visibility is 6 mi. ... KSEA - Seattle-Tacoma International Airport METAR TAF. KRNT - Renton Municipal Airport (4.7 NM) METAR KBFI - Boeing Field/King County ...METAR KSEA 250753Z 12013KT 9SM -RA BKN050 OVC070 14/12 A2978 RMK AO2 RAE19B50 SLP089 P0002 T01440117 401780111. Current weather is light rain.The wind is from direction 120° with a speed of 13 kt. Visibility is 9 mi. The ceiling, broken or more, is 5,000 ft. The temperature and wind chill are 14 °C.Impacts TAF Board. TAF Home. Plot. Data. Board. Info. For situational awareness. Not to be used for flight planning purposes. IDs: KSEA - Seattle-Tacoma Intl, WA, US. Issued at 1515 UTC 02 Oct 2023. Updated at 1635 UTC 02 Oct 2023. Potential Impact: None: Slight: Moderate: High: Time 1604Z 02/17Z 02/18Z 02/19Z 02/20Z 02/21ZMETAR Portland International Airport - KPDX/PDX. Portland International Airport is a large airport in Oregon, United States. The airport is located at latitude 45.58869 and longitude -122.59815. The airport has 3 runways: 10R/28L, 10L/28R and 3/21. The ICAO airport code of this field is KPDX. The local airport ID (FAA LID) of this airport is PDX.METAR KSEA 010253Z 00000KT 10SM FEW025 13/07 A3007 RMK AO2 SLP190 T01280072 53005 $. There is little or no wind from a variable direction. Visibility is 10 mi. ... KSEA - Seattle-Tacoma International Airport METAR TAF. KRNT - Renton Municipal Airport (4.7 NM) METAR KBFI - Boeing Field/King County International ...rckh 070644z 03005kt 010v070 5000 -shra few010 sct016 bkn025 29/26 q1007 rets tempo 3000 shra rmk a2976 taf cor rckh 070543z 0706/0812 27010kt 9999 few015 bkn032 tempo 0706/0710 3000 tsra sct008 few012cb bkn016 bkn030 becmg 0712/0714 06005kt tempo 0723/0805 20008kt 5000 shra few012 bkn020 bkn050 becmg 0805/0807 26008kt. rcss ...KSEA - SEA . Seattle-Tacoma International Airport. Rwys, info. METAR. Webcams. ... TAF. Issued 57m ago - all times local From Tuesday 18:00 till Wednesday 23:00: Wind 170° 9kt, gusting 16kt. Light shower rain. Clouds few 2500ft, broken 4000ft, overcast 6000ft. Temporarily from Tuesday 19:00 till 22:00: Visibility 5sm. ...METAR KSEA 010053Z 29004KT 10SM CLR 16/08 A3006 RMK AO2 SLP185 T01560083 $. The wind is from direction 290° with a speed of 4 kt. Visibility is 10 mi. No ceiling has been observed. ... KSEA - Seattle-Tacoma International Airport METAR TAF. KRNT - Renton Municipal Airport (4.7 NM) METAR KBFI - Boeing Field/King County International ...METAR Portland International Airport - KPDX/PDX. Portland International Airport is a large airport in Oregon, United States. The airport is located at latitude 45.58869 and longitude -122.59815. The airport has 3 runways: 10R/28L, 10L/28R and 3/21. The ICAO airport code of this field is KPDX. The local airport ID (FAA LID) of this airport is PDX.Request the most recent of the two icaoId's KSEA and PHNL from three hours ago, based on issue time. Only one TAF is returned, the most recent of the two from three hours ago. mostRecentForEachStation-constraint - request the most recent for each TAF station in the fastest fashion. Not appropriate for historical data retrievalksea 090953z 22004kt 10sm bkn250 14/10 a2972 rmk ao2 slp068 t01390100 $ ksea 090916z 0909/1012 20006kt p6sm sct120 bkn200 fm091300 16008kt p6sm bkn120 ovc200 fm091600 16008kt p6sm vcsh ovc050 fm092000 19008kt p6sm -ra ovc035 fm100000 22007kt p6sm ovc040. cyvr 091000z 08005kt 20sm bkn180 ovc220 14/13 a2962 rmk …E6B, NavLog Calculator, Weather Reports, METAR, TAF, Wind Components, Instrument Simulator, Weight and Balance, Pressure Altitude, Density Altitude, True Air Speed ...KLAX 110653Z 14007KT 130V210 10SM FEW011 18/15 A2972 RMK AO2 SLP061 T01780150 $. METAR Board. Radar Display. Forecast Discussion. For situational awareness. Not to be used for flight planning purposes. Page loaded: 09:04 UTC | 02:04 AM Pacific | 03:04 AM Mountain | 04:04 AM Central | 05:04 AM Eastern. Aviation Weather Center Homepage provides ... TAF for: KBFI (Seattle/Boeing Fld, WA, US) issued at 2320 UTC 24 Sep 2023: Text: KBFI 242320Z 2500/2524 14006KT P6SM -RA BKN070 OVC090 : Forecast period: 0000 to 0200 UTC 25 September 2023: Forecast type: FROM: standard forecast or significant change: Winds: from the SE (140 degrees) at 7 MPH (6 knots; 3.1 m/s)ksea ksea 061853z 01006kt 10sm clr 19/12 a3019 rmk ao2 slp228 t01890122: krnt 4.9nm ne: krnt 061853z 34004kt 10sm few005 16/12 a3018 rmk ao2 slp225 t01610122 ... taf: ksea ksea 061720z 0618/0724 02008kt p6sm sct006 fm061900 01009kt p6sm sct010 fm062100 35010kt p6sm skc fm070600 04005kt p6sm skc fm071200 03005kt p6sm bcfg few002 fm071700 09005kt ...Calculated from historical METAR data of Seattle-Tacoma International Airport (KSEA) between 2019 and 2023. Remove ads VFR conditions Temperature Precipitation WindTAF for: KSEA (Seattle-Tacoma Intl, WA, US) issued at 1509 UTC 11 Oct 2023: Text: KSEA 111509Z 1115/1218 14010KT P6SM -SHRA SCT025 OVC040 : Forecast period: 1500 to 2100 UTC 11 October 2023: Forecast type: FROM: standard forecast or significant change: Winds: from the SE (140 degrees) at 12 MPH (10 knots; 5.1 m/s)ksea 212353z 03006kt 10sm few040 20/07 a3002 rmk ao2 slp172 t02000072 10211 20150 58017 ksea 212336z 2200/2306 36008kt p6sm few040 fm220300 01005kt p6sm skc fm220900 13003kt p6sm skc fm221500 16003kt 3sm br sct003 fm221800 21005kt ... ktiw 212353z 02006g15kt 10sm clr 19/07 a3001 rmk ao2 slp161 t01940067 10194 20144 56021 no taf found for ktiw.Data at: 1517 UTC 05 Oct 2023. KSEA 051453Z 03007KT 2SM BR BKN003 13/12 A3037 RMK AO2 SFC VIS 6 SLP291 T01280117 51001. KSEA 051506Z 0515/0618 01010KT 5SM BR BKN002. FM051700 01008KT 6SM BR BKN006. FM051900 36010KT P6SM SCT012.TAF Hannover Airport. Hannover Airport is a large airport in Lower Saxony, Germany. The airport is located at latitude 52.46226 and longitude 9.68628. The airport has 3 runways: 9L/27R, 9R/27L and 9C/27C. The ICAO airport code of this field is EDDV. The airport's IATA code is HAJ.METAR KSEA 120553Z 29005KT 10SM FEW050 SCT250 17/12 A3003 RMK AO2 SLP174 T01720117 10250 20172 53003. The wind is from direction 290° with a speed of 5 kt. Visibility is 10 mi. ... KSEA - Seattle-Tacoma International Airport METAR TAF. KRNT - Renton Municipal Airport (4.7 NM) METAR KBFI - Boeing Field/King County International ...Oct 10, 2023 · TAF for: KSEA (Seattle-Tacoma Intl, WA, US) issued at 1739 UTC 10 Oct 2023: Text: KSEA 101739Z 1018/1124 13008KT P6SM -RA FEW040 OVC050 : Forecast period: 1800 to 1900 UTC 10 October 2023: Forecast type: FROM: standard forecast or significant change: Winds: from the SE (130 degrees) at 9 MPH (8 knots; 4.1 m/s) Visibility: 6 or more sm (10+ km ... Flight plan departing from KSEA - Seattle-Tacoma Intl, arriving at KBFI - Boeing Fld King Co Intl. Distance 5 nm / 9 km. Download for FSX, X-Plane, PMDG, Infinite Flight, PDF or other products. ... TAF AMD KBFI 180303Z 1803/1824 14005KT P6SM FEW050 OVC090 FM180500 16008KT P6SM BKN100 OVC200 FM181000 16008KT P6SM VCSH BKN030 OVC050 FM181700 ...rjtt 281200z vrb02kt 9999 sct040 bkn050 14/08 q1026 becmg 36005kt rmk 3sc040 7sc050 a3030 taf rjtt 281105z 2812/2918 36004kt 9999 few020 bkn035 becmg 2821/2823 19022kt tempo 2906/2915 20028g38kt tempo 2915/2918 4000 -shra br few005 bkn008. ksea 281153z 33004kt 9sm -ra few014 bkn023 ovc032 03/01 a2981 rmk ao2 slp104 rab48 p0000 60001 70014 ...E6B, NavLog Calculator, Weather Reports, METAR, TAF, Wind Components, Instrument Simulator, Weight and Balance, Pressure Altitude, Density Altitude, True Air Speed, and …TAF for: KSEA (Seattle-Tacoma Intl, WA, US) issued at 1739 UTC 10 Oct 2023: Text: KSEA 101739Z 1018/1124 13008KT P6SM -RA FEW040 OVC050 : Forecast period: 1800 to 1900 UTC 10 October 2023: Forecast type: FROM: standard forecast or significant change: Winds: from the SE (130 degrees) at 9 MPH (8 knots; 4.1 m/s)METAR KSEA 260953Z 16003KT 10SM FEW045 SCT100 BKN150 12/11 A2989 RMK AO2 SLP126 T01220106. The wind is from direction 160° with a speed of 3 kt. Visibility is 10 mi. The ceiling, broken or more, is 15,000 …Raw TAF. KSEA 190311Z 1903/2006 21007KT P6SM BKN035. FM191200 18004KT P6SM BKN020 OVC035. FM191800 24006KT P6SM SCT020 BKN040. Raw METAR. KSEA 190402Z 23008KT 10SM SCT026 OVC060 14/09 A3006 RMK AO2 T01390089. KSEA 190353Z 24007KT 10SM BKN026 BKN060 OVC085 14/09 A3006 RMK AO2 RAE00 SLP185 P0000 T01390089.taf text data. taf home. plot. data. board. info. ids: ... ksea 150653z 22008kt 10sm sct065 bkn080 bkn120 06/01 a2980 rmk ao2 slp099 t00560011 ksea 150538z 1506/1612 22007kt p6sm few030 ovc080 fm151200 20005kt p6sm vcsh bkn030 bkn100 fm151500 19007kt p6sm bkn040 fm151800 22009kt p6sm bkn060 fm152100 29006kt p6sm bkn070 fm160300 36005kt p6sm bkn050.tended TAF period, the format of ALL TAFs changed. TAF sites within the Brownsville NWS Area of Service continue to receive TAFs for a 24-hour period. Only the time format changed, ... KSEA - Seattle-Tacoma Int'l KSFO - San Francisco Int'l KSLC - Salt Lake City Int'l KSTL - Lambert-St Lewis Int'lMETAR KSEA 261153Z 16005KT 10SM FEW150 11/09 A2991 RMK AO2 SLP135 70061 T01060089 10156 20106 53007. The wind is from direction 160° with a speed of 5 kt. Visibility is 10 mi. ... KSEA - Seattle-Tacoma International Airport METAR TAF. KRNT - Renton Municipal Airport (4.7 NM) METAR KBFI - Boeing Field/King County …New! Graphical NOTAM now available for NOTAM Retrieval by ICAO Identifiers for Military Airfields only. Enter up to 50 ICAO Identifiers, separated by a space: Text Type: Report Raw. FAA Special Use Airspace (SUA) Information. Always Check Attention Notices for the most up to date information. on DoD flight planning.KSEA - Seattle-Tacoma Intl, WA, US Issued at 1720 UTC 06 Oct 2023 Updated at 1819 UTC 06 Oct 2023 Potential Impact None Slight Moderate High NOTE: LAMP data beyond the time of the TAF data is denoted as LAMP in Type and colored magenta. Raw TAF KSEA 061720Z 0618/0724 02008KT P6SM SCT006 FM061900 01009KT P6SM SCT010 FM062100 35010KT P6SM SKCTAF for: KSEA (Seattle-Tacoma Intl, WA, US) issued at 0526 UTC 16 Sep 2023: Text: KSEA 160526Z 1606/1712 01005KT P6SM SKC : Forecast period: 0600 to 1400 UTC 16 September 2023: Forecast type: FROM: standard forecast or significant change: Winds: from the N (10 degrees) at 6 MPH (5 knots; 2.6 m/s) Visibility: 6 or more sm (10+ km) Ceiling:Renton Municipal Airport is a midsized airport in Washington, United States. The airport is located at latitude 47.49314 and longitude -122.21575. The airport has one runway: 16/34. The ICAO airport code of this field is KRNT. The local airport ID (FAA LID) of this airport is RNT. The airport's IATA code is RNT. The airport is in the Seattle FIR .. NOTE: LAMP data beyond the time of the TAF data is denoted as METAR KSEA 091153Z 21008KT 10SM -RA OVC060 09/07 A3010 RMK AO2 R METAR TAF : Current weather observation and Forecast, Seattle / Tacoma Seattle-Tacoma International Airport Washington United States. Satellite images. 10-day forecasts. ... TAF: KSEA 100541Z 1006/1112 VRB03KT P6SM BKN045 FM100900 18006KT P6SM BKN045 FM102200 24004KT P6SM SCT050 FM110100 34006KT P6SM SCT200METAR KSEA 010653Z 03009KT 10SM CLR 18/10 A3011 RMK AO2 SLP201 T01780100. The wind is from direction 030° with a speed of 9 kt. Visibility is 10 mi. No ceiling has been observed. ... KSEA - Seattle-Tacoma International Airport METAR TAF. KRNT - Renton Municipal Airport (4.7 NM) METAR KBFI - Boeing Field/King County International ... Flight plan departing from KSEA - Seattle Tacoma Intl, arriving at TAF Seattle–Tacoma International Airport KSEA SeaTac, Washington, United States ... TAF KSEA 181742Z 1818/1924 06008KT P6SM SCT020 BKN050. Wind. 060 ... METAR KSEA 150253Z 34005KT 10SM CLR 19/1...

Continue Reading